createdAt,value
2022-08-09T00:01:10.630Z,101018.34
2022-08-09T00:04:10.532Z,101024.39
2022-08-09T00:06:41.441Z,101022.31
2022-08-09T00:09:18.013Z,101026.06
2022-08-09T00:12:02.971Z,101030.05
2022-08-09T00:14:38.490Z,101029.92
2022-08-09T00:18:04.701Z,101032.98
2022-08-09T00:20:04.733Z,101030.79
2022-08-09T00:22:36.744Z,101030.86
2022-08-09T00:25:12.959Z,101032.98
2022-08-09T00:27:47.974Z,101028.49
2022-08-09T00:30:25.179Z,101029.30
2022-08-09T00:32:58.431Z,101027.73
2022-08-09T00:35:43.479Z,101027.65
2022-08-09T00:38:16.246Z,101028.73
2022-08-09T00:40:53.957Z,101028.80
2022-08-09T00:44:12.976Z,101031.02
2022-08-09T00:46:56.086Z,101031.48
2022-08-09T00:49:30.293Z,101033.33
2022-08-09T00:52:05.490Z,101034.70
2022-08-09T00:54:38.306Z,101035.50
2022-08-09T00:57:24.515Z,101039.62
2022-08-09T01:00:22.068Z,101039.23
2022-08-09T01:03:05.083Z,101038.67
2022-08-09T01:05:51.533Z,101040.20
2022-08-09T01:08:45.669Z,101037.55
2022-08-09T01:11:30.367Z,101038.88
2022-08-09T01:14:11.784Z,101035.65
2022-08-09T01:16:52.171Z,101039.97
2022-08-09T01:19:39.938Z,101040.73
2022-08-09T01:22:45.773Z,101041.79
2022-08-09T01:25:41.808Z,101043.06
2022-08-09T01:28:16.048Z,101043.08
2022-08-09T01:30:52.271Z,101043.89
2022-08-09T01:33:29.350Z,101041.85
2022-08-09T01:36:07.263Z,101044.98
2022-08-09T01:38:44.278Z,101043.39
2022-08-09T01:41:25.995Z,101039.15
2022-08-09T01:44:02.573Z,101037.40
2022-08-09T01:46:39.700Z,101038.23
2022-08-09T01:49:15.541Z,101046.75
2022-08-09T01:51:53.665Z,101045.96
2022-08-09T01:54:32.770Z,101044.62
2022-08-09T01:57:09.866Z,101046.30
2022-08-09T01:59:52.055Z,101048.91
2022-08-09T02:02:30.894Z,101046.02
2022-08-09T02:05:15.459Z,101048.27
2022-08-09T02:08:38.808Z,101051.18
2022-08-09T02:10:51.268Z,101052.59
2022-08-09T02:13:40.104Z,101051.93
2022-08-09T02:16:14.673Z,101053.01
2022-08-09T02:18:47.738Z,101054.51
2022-08-09T02:21:24.887Z,101055.68
2022-08-09T02:24:01.848Z,101058.58
2022-08-09T02:26:37.334Z,101060.36
2022-08-09T02:29:18.085Z,101061.96
2022-08-09T02:31:51.166Z,101057.55
2022-08-09T02:34:40.469Z,101060.79
2022-08-09T02:37:18.343Z,101062.09
2022-08-09T02:40:01.680Z,101062.56
2022-08-09T02:42:39.603Z,101060.84
2022-08-09T02:45:16.869Z,101061.05
2022-08-09T02:47:58.923Z,101062.67
2022-08-09T02:50:36.496Z,101060.64
2022-08-09T02:53:25.893Z,101063.23
2022-08-09T02:56:01.816Z,101063.85
2022-08-09T02:58:38.105Z,101067.81
2022-08-09T03:01:21.940Z,101065.67
2022-08-09T03:04:18.395Z,101066.34
2022-08-09T03:06:54.271Z,101067.98
2022-08-09T03:09:26.914Z,101067.88
2022-08-09T03:12:11.316Z,101073.64
2022-08-09T03:14:46.637Z,101073.70
2022-08-09T03:17:27.063Z,101075.66
2022-08-09T03:20:03.376Z,101076.52
2022-08-09T03:22:41.909Z,101074.88
2022-08-09T03:25:26.226Z,101074.32
2022-08-09T03:28:11.283Z,101076.40
2022-08-09T03:30:45.019Z,101070.91
2022-08-09T03:33:22.684Z,101073.63
2022-08-09T03:36:13.484Z,101070.88
2022-08-09T03:38:47.765Z,101070.69
2022-08-09T03:41:22.471Z,101072.11
2022-08-09T03:44:08.504Z,101074.27
2022-08-09T03:46:41.200Z,101074.30
2022-08-09T03:49:17.541Z,101072.40
2022-08-09T03:52:00.148Z,101072.29
2022-08-09T03:54:38.964Z,101076.01
2022-08-09T03:57:20.571Z,101076.68
2022-08-09T04:00:00.516Z,101077.84
2022-08-09T04:02:45.464Z,101079.44
2022-08-09T04:05:27.540Z,101079.64
2022-08-09T04:08:00.307Z,101083.77
2022-08-09T04:10:33.349Z,101086.52
2022-08-09T04:13:11.453Z,101082.85
2022-08-09T04:16:20.515Z,101082.52
2022-08-09T04:18:37.089Z,101082.77
2022-08-09T04:21:09.980Z,101082.52
2022-08-09T04:23:42.116Z,101085.02
2022-08-09T04:26:35.119Z,101079.92
2022-08-09T04:29:15.483Z,101082.96
2022-08-09T04:31:48.177Z,101087.39
2022-08-09T04:34:31.731Z,101083.64
2022-08-09T04:37:04.444Z,101083.00
2022-08-09T04:39:40.707Z,101080.09
2022-08-09T04:42:15.818Z,101078.02
2022-08-09T04:44:49.346Z,101085.05
2022-08-09T04:47:21.745Z,101089.09
2022-08-09T04:49:55.838Z,101095.12
2022-08-09T04:52:30.427Z,101091.74
2022-08-09T04:55:07.824Z,101094.46
2022-08-09T04:57:54.338Z,101097.02
2022-08-09T05:00:31.872Z,101097.91
2022-08-09T05:03:30.507Z,101096.80
2022-08-09T05:06:06.864Z,101101.36
2022-08-09T05:08:39.517Z,101100.65
2022-08-09T05:11:16.260Z,101100.62
2022-08-09T05:13:48.873Z,101100.27
2022-08-09T05:16:20.904Z,101101.79
2022-08-09T05:19:04.719Z,101102.59
2022-08-09T05:21:47.005Z,101109.90
2022-08-09T05:24:19.489Z,101112.36
2022-08-09T05:26:51.594Z,101114.51
2022-08-09T05:29:24.466Z,101111.29
2022-08-09T05:32:03.349Z,101116.23
2022-08-09T05:34:38.029Z,101116.81
2022-08-09T05:37:15.310Z,101116.20
2022-08-09T05:39:47.790Z,101113.87
2022-08-09T05:42:27.977Z,101113.90
2022-08-09T05:45:01.621Z,101115.21
2022-08-09T05:47:33.686Z,101117.95
2022-08-09T05:50:25.346Z,101118.14
2022-08-09T05:52:58.153Z,101119.16
2022-08-09T05:55:31.473Z,101115.55
2022-08-09T05:58:07.118Z,101118.44
2022-08-09T06:00:39.403Z,101120.70
2022-08-09T06:03:12.581Z,101123.30
2022-08-09T06:06:02.719Z,101125.55
2022-08-09T06:08:38.124Z,101124.48
2022-08-09T06:11:16.638Z,101127.39
2022-08-09T06:13:49.933Z,101126.80
2022-08-09T06:16:23.717Z,101130.97
2022-08-09T06:18:55.753Z,101132.52
2022-08-09T06:21:30.378Z,101134.77
2022-08-09T06:24:02.796Z,101128.86
2022-08-09T06:26:37.209Z,101132.21
2022-08-09T06:29:14.895Z,101130.92
2022-08-09T06:32:17.183Z,101134.35
2022-08-09T06:34:40.866Z,101132.80
2022-08-09T06:37:13.523Z,101132.16
2022-08-09T06:39:57.722Z,101137.70
2022-08-09T06:42:33.643Z,101136.17
2022-08-09T06:45:20.377Z,101136.98
2022-08-09T06:48:01.393Z,101136.36
2022-08-09T06:50:33.823Z,101137.20
2022-08-09T06:53:05.895Z,101142.54
2022-08-09T06:55:38.146Z,101142.45
2022-08-09T06:58:28.586Z,101142.29
2022-08-09T07:01:02.655Z,101143.91
2022-08-09T07:03:39.394Z,101145.05
2022-08-09T07:06:25.583Z,101144.45
2022-08-09T07:09:00.199Z,101142.94
2022-08-09T07:11:34.229Z,101143.36
2022-08-09T07:14:26.409Z,101143.95
2022-08-09T07:16:58.990Z,101149.56
2022-08-09T07:19:31.082Z,101150.62
2022-08-09T07:22:03.475Z,101157.30
2022-08-09T07:24:40.036Z,101155.75
2022-08-09T07:27:33.553Z,101153.93
2022-08-09T07:30:08.018Z,101157.45
2022-08-09T07:32:42.746Z,101162.56
2022-08-09T07:35:18.175Z,101157.42
2022-08-09T07:37:51.956Z,101159.05
2022-08-09T07:40:33.723Z,101163.88
2022-08-09T07:43:18.640Z,101163.73
2022-08-09T07:45:51.192Z,101157.19
2022-08-09T07:48:29.860Z,101164.78
2022-08-09T07:52:03.288Z,101159.99
2022-08-09T07:54:05.023Z,101160.30
2022-08-09T07:56:48.834Z,101159.56
2022-08-09T07:59:25.011Z,101162.20
2022-08-09T08:01:58.322Z,101164.08
2022-08-09T08:04:32.990Z,101164.16
2022-08-09T08:07:14.883Z,101166.14
2022-08-09T08:10:08.326Z,101166.15
2022-08-09T08:12:45.505Z,101166.09
2022-08-09T08:15:24.034Z,101166.98
2022-08-09T08:17:57.901Z,101171.59
2022-08-09T08:20:33.381Z,101167.09
2022-08-09T08:23:16.302Z,101170.33
2022-08-09T08:25:53.900Z,101169.55
2022-08-09T08:28:32.849Z,101171.48
2022-08-09T08:31:13.835Z,101171.40
2022-08-09T08:33:53.099Z,101169.58
2022-08-09T08:36:28.828Z,101169.39
2022-08-09T08:39:02.672Z,101171.04
2022-08-09T08:41:42.076Z,101174.16
2022-08-09T08:44:26.917Z,101173.82
2022-08-09T08:47:04.553Z,101173.36
2022-08-09T08:49:47.179Z,101169.19
2022-08-09T08:52:52.691Z,101174.66
2022-08-09T08:55:15.337Z,101171.79
2022-08-09T08:57:56.429Z,101171.75
2022-08-09T09:00:34.198Z,101174.95
2022-08-09T09:03:12.250Z,101170.87
2022-08-09T09:05:59.988Z,101171.00
2022-08-09T09:08:42.461Z,101170.87
2022-08-09T09:11:19.726Z,101170.88
2022-08-09T09:13:56.723Z,101169.94
2022-08-09T09:16:35.052Z,101173.45
2022-08-09T09:19:37.745Z,101169.56
2022-08-09T09:22:05.408Z,101170.74
2022-08-09T09:24:43.594Z,101172.73
2022-08-09T09:28:02.918Z,101169.90
2022-08-09T09:33:16.571Z,101170.56
2022-08-09T09:36:11.582Z,101171.19
2022-08-09T09:38:57.429Z,101167.92
2022-08-09T09:41:49.412Z,101168.73
2022-08-09T09:44:31.686Z,101171.50
2022-08-09T09:47:10.253Z,101169.19
2022-08-09T09:50:13.687Z,101163.63
2022-08-09T09:52:53.849Z,101163.02
2022-08-09T09:55:32.546Z,101161.81
2022-08-09T09:58:16.647Z,101157.70
2022-08-09T10:00:58.859Z,101156.21
2022-08-09T10:03:44.050Z,101153.58
2022-08-09T10:06:16.559Z,101157.30
2022-08-09T10:08:55.211Z,101158.66
2022-08-09T10:11:54.049Z,101155.69
2022-08-09T10:14:30.450Z,101155.77
2022-08-09T10:17:39.671Z,101156.29
2022-08-09T10:20:27.217Z,101157.15
2022-08-09T10:23:20.082Z,101162.54
2022-08-09T10:26:06.686Z,101157.53
2022-08-09T10:28:48.800Z,101156.64
2022-08-09T10:34:34.017Z,101156.95
2022-08-09T10:37:09.650Z,101153.98
2022-08-09T10:39:49.298Z,101157.66
2022-08-09T10:42:26.968Z,101155.98
2022-08-09T10:45:01.320Z,101152.81
2022-08-09T10:48:19.483Z,101149.07
2022-08-09T10:51:12.246Z,101148.13
2022-08-09T10:54:04.971Z,101145.31
2022-08-09T10:56:39.384Z,101147.77
2022-08-09T10:59:31.875Z,101145.04
2022-08-09T11:03:19.312Z,101144.30
2022-08-09T11:05:33.215Z,101146.94
2022-08-09T11:08:35.185Z,101139.56
2022-08-09T11:11:16.264Z,101135.80
2022-08-09T11:14:08.612Z,101134.35
2022-08-09T11:16:48.659Z,101134.23
2022-08-09T11:20:10.965Z,101135.09
2022-08-09T11:23:07.169Z,101129.08
2022-08-09T11:25:54.679Z,101125.70
2022-08-09T11:28:56.382Z,101124.14
2022-08-09T11:31:57.882Z,101117.15
2022-08-09T11:34:44.076Z,101120.08
2022-08-09T11:37:40.615Z,101117.10
2022-08-09T11:40:17.774Z,101121.49
2022-08-09T11:42:52.053Z,101117.67
2022-08-09T11:45:37.784Z,101120.70
2022-08-09T11:48:26.331Z,101115.83
2022-08-09T11:52:49.208Z,101119.16
2022-08-09T11:54:27.990Z,101117.66
2022-08-09T11:57:47.510Z,101112.27
2022-08-09T12:00:31.001Z,101105.61
2022-08-09T12:03:31.840Z,101108.86
2022-08-09T12:05:58.019Z,101104.08
2022-08-09T12:08:31.512Z,101104.83
2022-08-09T12:11:04.290Z,101105.13
2022-08-09T12:14:09.856Z,101108.27
2022-08-09T12:16:41.734Z,101105.88
2022-08-09T12:19:15.435Z,101106.73
2022-08-09T12:21:51.603Z,101106.86
2022-08-09T12:24:26.091Z,101107.23
2022-08-09T12:29:12.071Z,101101.98
2022-08-09T12:30:01.973Z,101094.66
2022-08-09T12:33:01.700Z,101088.68
2022-08-09T12:35:40.114Z,101091.46
2022-08-09T12:38:29.754Z,101086.50
2022-08-09T12:41:08.999Z,101083.14
2022-08-09T12:44:05.910Z,101081.03
2022-08-09T12:46:36.155Z,101081.35
2022-08-09T12:49:09.268Z,101077.58
2022-08-09T12:52:01.502Z,101077.85
2022-08-09T12:56:10.992Z,101075.70
2022-08-09T12:57:46.516Z,101073.59
2022-08-09T13:00:25.253Z,101070.67
2022-08-09T13:02:59.944Z,101070.86
2022-08-09T13:05:51.787Z,101072.95
2022-08-09T13:08:58.348Z,101070.21
2022-08-09T13:11:35.152Z,101068.86
2022-08-09T13:14:41.698Z,101072.30
2022-08-09T13:17:43.879Z,101072.42
2022-08-09T13:20:15.171Z,101069.77
2022-08-09T13:23:04.906Z,101069.02
2022-08-09T13:25:53.349Z,101066.13
2022-08-09T13:28:34.454Z,101068.08
2022-08-09T13:32:15.826Z,101071.22
2022-08-09T13:34:03.793Z,101068.14
2022-08-09T13:36:42.075Z,101072.19
2022-08-09T13:41:45.995Z,101072.90
2022-08-09T13:42:12.877Z,101078.70
2022-08-09T13:44:48.703Z,101074.63
2022-08-09T13:47:31.427Z,101073.64
2022-08-09T13:50:18.018Z,101076.09
2022-08-09T13:53:02.642Z,101078.48
2022-08-09T13:55:36.908Z,101074.29
2022-08-09T13:58:11.573Z,101075.63
2022-08-09T14:00:48.302Z,101072.39
2022-08-09T14:04:05.387Z,101067.73
2022-08-09T14:06:25.571Z,101068.82
2022-08-09T14:08:59.482Z,101063.60
2022-08-09T14:11:31.680Z,101062.21
2022-08-09T14:14:24.888Z,101058.54
2022-08-09T14:17:00.478Z,101057.12
2022-08-09T14:19:33.826Z,101053.54
2022-08-09T14:22:05.960Z,101057.56
2022-08-09T14:24:43.984Z,101056.21
2022-08-09T14:27:26.601Z,101051.13
2022-08-09T14:30:35.740Z,101053.48
2022-08-09T14:32:51.447Z,101049.80
2022-08-09T14:35:23.855Z,101049.97
2022-08-09T14:38:11.143Z,101044.92
2022-08-09T14:41:04.456Z,101047.05
2022-08-09T14:43:47.754Z,101048.49
2022-08-09T14:46:53.898Z,101051.59
2022-08-09T14:49:18.601Z,101052.34
2022-08-09T14:51:58.868Z,101049.39
2022-08-09T14:54:31.325Z,101049.98
2022-08-09T14:57:08.037Z,101046.41
2022-08-09T14:59:41.859Z,101043.92
2022-08-09T15:02:17.869Z,101039.42
2022-08-09T15:04:52.489Z,101040.56
2022-08-09T15:07:24.760Z,101039.70
2022-08-09T15:10:07.067Z,101039.67
2022-08-09T15:12:45.040Z,101033.41
2022-08-09T15:15:17.386Z,101029.34
2022-08-09T15:17:52.892Z,101031.73
2022-08-09T15:21:57.232Z,101032.44
2022-08-09T15:24:01.528Z,101034.17
2022-08-09T15:26:18.921Z,101036.30
2022-08-09T15:29:05.158Z,101034.89
2022-08-09T15:31:41.965Z,101037.08
2022-08-09T15:34:31.608Z,101037.49
2022-08-09T15:37:37.487Z,101031.67
2022-08-09T15:40:20.276Z,101034.44
2022-08-09T15:42:54.291Z,101034.06
2022-08-09T15:45:29.871Z,101039.09
2022-08-09T15:48:06.666Z,101040.63
2022-08-09T15:50:46.335Z,101038.73
2022-08-09T15:54:07.557Z,101044.96
2022-08-09T15:56:21.026Z,101045.50
2022-08-09T15:58:58.499Z,101048.86
2022-08-09T16:01:31.381Z,101051.88
2022-08-09T16:04:13.388Z,101048.36
2022-08-09T16:06:50.612Z,101049.18
2022-08-09T16:09:32.510Z,101050.41
2022-08-09T16:12:15.649Z,101051.48
2022-08-09T16:14:50.934Z,101050.42
2022-08-09T16:17:23.720Z,101048.76
2022-08-09T16:20:04.687Z,101051.32
2022-08-09T16:22:48.610Z,101052.50
2022-08-09T16:25:36.982Z,101049.81
2022-08-09T16:28:13.596Z,101048.27
2022-08-09T16:30:58.707Z,101051.91
2022-08-09T16:33:35.777Z,101051.52
2022-08-09T16:36:15.947Z,101055.37
2022-08-09T16:38:51.634Z,101058.52
2022-08-09T16:42:02.316Z,101059.83
2022-08-09T16:44:19.053Z,101059.73
2022-08-09T16:46:55.557Z,101056.38
2022-08-09T16:50:31.747Z,101053.96
2022-08-09T16:52:29.178Z,101055.16
2022-08-09T16:55:02.812Z,101055.42
2022-08-09T16:58:09.093Z,101057.73
2022-08-09T17:00:27.378Z,101063.09
2022-08-09T17:03:00.009Z,101068.88
2022-08-09T17:06:08.776Z,101069.11
2022-08-09T17:08:43.134Z,101072.68
2022-08-09T17:11:17.837Z,101072.53
2022-08-09T17:14:01.054Z,101077.61
2022-08-09T17:16:38.379Z,101079.64
2022-08-09T17:19:10.720Z,101074.64
2022-08-09T17:21:43.411Z,101075.44
2022-08-09T17:24:20.870Z,101070.17
2022-08-09T17:27:00.891Z,101073.61
2022-08-09T17:29:37.940Z,101074.84
2022-08-09T17:32:20.337Z,101076.83
2022-08-09T17:35:11.531Z,101081.79
2022-08-09T17:38:11.747Z,101083.02
2022-08-09T17:40:39.830Z,101081.77
2022-08-09T17:43:34.455Z,101078.63
2022-08-09T17:46:06.705Z,101082.73
2022-08-09T17:48:51.673Z,101087.61
2022-08-09T17:51:25.086Z,101086.14
2022-08-09T17:54:02.879Z,101085.05
2022-08-09T17:56:37.839Z,101081.54
2022-08-09T17:59:11.739Z,101080.48
2022-08-09T18:02:06.454Z,101085.14
2022-08-09T18:04:42.910Z,101083.23
2022-08-09T18:07:22.969Z,101086.85
2022-08-09T18:10:04.921Z,101088.16
2022-08-09T18:12:40.753Z,101085.60
2022-08-09T18:16:05.706Z,101092.14
2022-08-09T18:18:25.719Z,101098.20
2022-08-09T18:21:17.695Z,101103.17
2022-08-09T18:24:10.480Z,101103.06
2022-08-09T18:26:46.432Z,101107.52
2022-08-09T18:30:40.182Z,101104.38
2022-08-09T18:32:12.248Z,101104.27
2022-08-09T18:34:45.046Z,101107.23
2022-08-09T18:37:47.327Z,101107.76
2022-08-09T18:40:12.550Z,101108.79
2022-08-09T18:42:46.866Z,101110.98
2022-08-09T18:46:45.021Z,101109.23
2022-08-09T18:48:11.236Z,101111.27
2022-08-09T18:50:49.856Z,101116.89
2022-08-09T18:53:22.849Z,101114.77
2022-08-09T18:55:57.334Z,101114.94
2022-08-09T18:58:38.966Z,101115.98
2022-08-09T19:01:11.338Z,101115.27
2022-08-09T19:04:01.753Z,101114.52
2022-08-09T19:06:38.612Z,101118.23
2022-08-09T19:09:13.481Z,101121.20
2022-08-09T19:11:46.059Z,101122.11
2022-08-09T19:14:29.038Z,101120.34
2022-08-09T19:17:01.846Z,101123.08
2022-08-09T19:19:41.704Z,101124.30
2022-08-09T19:22:15.144Z,101126.34
2022-08-09T19:25:11.599Z,101127.63
2022-08-09T19:27:42.335Z,101126.31
2022-08-09T19:30:23.822Z,101131.86
2022-08-09T19:33:02.153Z,101128.68
2022-08-09T19:35:58.571Z,101132.46
2022-08-09T19:38:31.151Z,101134.55
2022-08-09T19:41:04.027Z,101129.11
2022-08-09T19:44:01.497Z,101124.94
2022-08-09T19:46:35.601Z,101126.92
2022-08-09T19:50:10.201Z,101125.65
2022-08-09T19:52:00.513Z,101131.86
2022-08-09T19:54:33.607Z,101127.59
2022-08-09T19:57:08.530Z,101129.33
2022-08-09T20:00:05.922Z,101131.45
2022-08-09T20:04:23.943Z,101132.55
2022-08-09T20:05:46.306Z,101129.44
2022-08-09T20:08:24.865Z,101129.04
2022-08-09T20:11:14.101Z,101126.08
2022-08-09T20:13:54.015Z,101122.73
2022-08-09T20:16:32.750Z,101122.16
2022-08-09T20:19:43.001Z,101124.91
2022-08-09T20:22:00.870Z,101124.70
2022-08-09T20:24:34.186Z,101126.94
2022-08-09T20:27:08.682Z,101127.56
2022-08-09T20:29:42.142Z,101129.94
2022-08-09T20:32:28.858Z,101129.69
2022-08-09T20:35:05.611Z,101126.67
2022-08-09T20:38:19.076Z,101126.19
2022-08-09T20:40:30.905Z,101131.17
2022-08-09T20:43:19.123Z,101131.12
2022-08-09T20:46:00.271Z,101128.14
2022-08-09T20:48:47.082Z,101129.27
2022-08-09T20:51:25.211Z,101130.11
2022-08-09T20:53:57.275Z,101127.61
2022-08-09T20:56:29.432Z,101128.50
2022-08-09T20:59:03.084Z,101127.27
2022-08-09T21:01:50.707Z,101131.28
2022-08-09T21:05:51.832Z,101129.45
2022-08-09T21:07:18.351Z,101131.20
2022-08-09T21:09:56.502Z,101132.59
2022-08-09T21:12:32.427Z,101131.67
2022-08-09T21:15:12.346Z,101132.52
2022-08-09T21:18:21.575Z,101134.11
2022-08-09T21:20:38.721Z,101132.54
2022-08-09T21:23:13.541Z,101130.61
2022-08-09T21:26:00.075Z,101133.63
2022-08-09T21:28:36.321Z,101136.67
2022-08-09T21:31:16.973Z,101137.31
2022-08-09T21:33:56.878Z,101138.64
2022-08-09T21:36:30.730Z,101143.80
2022-08-09T21:39:04.193Z,101141.40
2022-08-09T21:42:04.554Z,101145.92
2022-08-09T21:44:34.323Z,101144.08
2022-08-09T21:47:10.410Z,101146.98
2022-08-09T21:49:50.931Z,101147.27
2022-08-09T21:52:23.732Z,101146.31
2022-08-09T21:55:04.261Z,101144.41
2022-08-09T21:57:59.173Z,101143.48
2022-08-09T22:00:33.331Z,101142.98
2022-08-09T22:03:19.237Z,101144.22
2022-08-09T22:05:58.691Z,101141.35
2022-08-09T22:08:31.363Z,101143.29
2022-08-09T22:12:06.814Z,101139.61
2022-08-09T22:13:55.870Z,101142.91
2022-08-09T22:16:35.341Z,101140.08
2022-08-09T22:19:57.867Z,101136.56
2022-08-09T22:22:01.666Z,101137.25
2022-08-09T22:24:34.588Z,101134.38
2022-08-09T22:27:10.421Z,101133.05
2022-08-09T22:29:50.110Z,101134.41
2022-08-09T22:32:30.110Z,101133.92
2022-08-09T22:35:06.324Z,101132.05
2022-08-09T22:37:40.575Z,101128.41
2022-08-09T22:40:20.080Z,101130.74
2022-08-09T22:42:52.484Z,101125.37
2022-08-09T22:48:10.694Z,101130.19
2022-08-09T22:48:35.367Z,101124.65
2022-08-09T22:51:10.908Z,101126.30
2022-08-09T22:54:02.290Z,101123.63
2022-08-09T22:56:35.312Z,101122.43
2022-08-09T22:59:58.384Z,101123.48
2022-08-09T23:02:00.914Z,101126.12
2022-08-09T23:04:33.329Z,101123.45
2022-08-09T23:08:23.318Z,101121.94
2022-08-09T23:10:19.763Z,101117.42
2022-08-09T23:12:51.873Z,101115.56
2022-08-09T23:15:24.075Z,101120.21
2022-08-09T23:17:56.455Z,101122.50
2022-08-09T23:20:28.894Z,101122.92
2022-08-09T23:23:01.065Z,101122.73
2022-08-09T23:25:33.331Z,101123.75
2022-08-09T23:28:15.674Z,101123.95
2022-08-09T23:30:51.344Z,101116.54
2022-08-09T23:33:25.501Z,101122.23
2022-08-09T23:36:06.547Z,101127.59
2022-08-09T23:38:48.802Z,101124.05
2022-08-09T23:41:28.614Z,101122.20
2022-08-09T23:44:03.670Z,101124.66
2022-08-09T23:46:35.801Z,101124.66
2022-08-09T23:49:09.061Z,101120.92
2022-08-09T23:51:41.192Z,101120.46
2022-08-09T23:54:13.307Z,101120.63
2022-08-09T23:56:54.221Z,101123.13
2022-08-09T23:59:49.548Z,101123.09
